Time;durP1;ratioP1;P1;durP2;ratioP2;P2;SDS_P1;SDS_P2;PMS_P1;PMS_P2;Temp;Humidity;BMP_temperature;BMP_pressure;BME280_temperature;BME280_humidity;BME280_pressure;Samples;Min_cycle;Max_cycle;Signal;HPM_P1;HPM_P2
2022/08/26 00:01:48;;;;;;;12.95;6.22;;;21.90;61.10;;;;;;5066607;28;20048;-61
2022/08/26 00:04:14;;;;;;;17.17;6.60;;;21.90;61.20;;;;;;5063655;28;20037;-62
2022/08/26 00:06:40;;;;;;;13.45;6.30;;;21.90;61.20;;;;;;5063387;28;20331;-61
2022/08/26 00:09:06;;;;;;;9.57;5.57;;;21.80;61.20;;;;;;5079100;28;20024;-61
2022/08/26 00:11:32;;;;;;;13.98;5.93;;;21.80;61.20;;;;;;5080388;28;20068;-62
2022/08/26 00:13:58;;;;;;;11.98;6.00;;;21.80;61.30;;;;;;5067282;28;20047;-63
2022/08/26 00:16:25;;;;;;;11.77;6.03;;;21.80;62.10;;;;;;5074235;28;20407;-62
2022/08/26 00:18:52;;;;;;;13.20;6.43;;;21.70;61.60;;;;;;5077115;28;20059;-61
2022/08/26 00:21:18;;;;;;;10.50;6.32;;;21.70;61.70;;;;;;5065813;28;20040;-62
2022/08/26 00:23:44;;;;;;;12.80;6.32;;;21.70;61.80;;;;;;5065450;28;20395;-62
2022/08/26 00:26:11;;;;;;;8.20;5.68;;;21.70;61.90;;;;;;5071344;28;20108;-62
2022/08/26 00:28:37;;;;;;;12.18;6.60;;;21.70;62.00;;;;;;5078656;28;20021;-62
2022/08/26 00:31:03;;;;;;;13.63;6.07;;;21.60;62.10;;;;;;5086780;28;20102;-62
2022/08/26 00:33:29;;;;;;;11.75;6.60;;;21.60;62.30;;;;;;5057933;28;20040;-62
2022/08/26 00:35:55;;;;;;;15.00;6.35;;;21.60;62.30;;;;;;5070580;28;20037;-62
2022/08/26 00:38:21;;;;;;;11.32;6.72;;;21.50;62.20;;;;;;5077255;28;20032;-62
2022/08/26 00:40:56;;;;;;;11.30;5.90;;;21.50;62.40;;;;;;5086577;28;20092;-64
2022/08/26 00:43:24;;;;;;;13.00;6.20;;;21.50;63.30;;;;;;5059153;28;20107;-64
2022/08/26 00:46:31;;;;;;;9.10;5.93;;;21.50;62.70;;;;;;5076879;28;20037;-62
2022/08/26 00:49:09;;;;;;;11.23;5.70;;;21.50;62.80;;;;;;5030773;28;20096;-63
2022/08/26 00:51:40;;;;;;;17.52;6.10;;;21.40;63.20;;;;;;5022178;28;20069;-63
2022/08/26 00:54:08;;;;;;;14.50;6.55;;;21.40;62.60;;;;;;5025259;28;20042;-61
2022/08/26 00:56:42;;;;;;;10.55;5.85;;;21.40;62.90;;;;;;5041217;28;20034;-62
2022/08/26 00:59:10;;;;;;;10.18;6.15;;;21.40;63.30;;;;;;5026595;28;20044;-63
2022/08/26 01:01:38;;;;;;;16.38;6.35;;;21.30;63.20;;;;;;5018905;28;20027;-62
2022/08/26 01:04:04;;;;;;;10.55;6.13;;;21.30;63.20;;;;;;5022648;28;20054;-63
2022/08/26 01:06:30;;;;;;;11.52;6.10;;;21.30;63.20;;;;;;5026343;28;20054;-63
2022/08/26 01:08:56;;;;;;;10.65;5.85;;;21.30;63.40;;;;;;5033854;28;20061;-62
2022/08/26 01:11:23;;;;;;;10.57;5.55;;;21.30;63.50;;;;;;5026682;28;20037;-63
2022/08/26 01:13:53;;;;;;;21.17;6.35;;;21.20;63.60;;;;;;5031765;28;20073;-62
2022/08/26 01:16:20;;;;;;;11.93;6.07;;;21.30;63.90;;;;;;5034218;28;20156;-64
2022/08/26 01:18:48;;;;;;;11.02;5.78;;;21.20;63.70;;;;;;5036399;28;20057;-64
2022/08/26 01:21:22;;;;;;;12.65;6.25;;;21.20;64.10;;;;;;5080704;28;20043;-63
2022/08/26 01:23:50;;;;;;;16.85;6.70;;;21.20;64.30;;;;;;5069233;28;20041;-63
2022/08/26 01:26:23;;;;;;;11.32;5.78;;;21.20;64.30;;;;;;5063535;28;20028;-63
2022/08/26 01:28:52;;;;;;;12.45;6.05;;;21.10;64.40;;;;;;5068251;28;20048;-63
2022/08/26 01:31:23;;;;;;;10.52;5.88;;;21.10;64.40;;;;;;5084689;28;20033;-62
2022/08/26 01:34:06;;;;;;;11.50;5.57;;;21.10;64.60;;;;;;5064429;28;20079;-63
2022/08/26 01:36:32;;;;;;;11.68;6.15;;;21.10;65.20;;;;;;5070728;28;20356;-63
2022/08/26 01:38:57;;;;;;;12.88;6.13;;;21.10;64.40;;;;;;5070838;28;20032;-62
2022/08/26 01:41:24;;;;;;;14.13;5.78;;;21.00;64.50;;;;;;5084298;28;20035;-62
2022/08/26 01:43:53;;;;;;;13.02;5.90;;;21.00;64.70;;;;;;5071629;28;20043;-63
2022/08/26 01:46:21;;;;;;;19.88;6.82;;;21.00;65.10;;;;;;5081879;28;20043;-62
2022/08/26 01:48:49;;;;;;;10.00;5.40;;;21.00;65.00;;;;;;5074969;28;20029;-61
2022/08/26 01:51:17;;;;;;;9.35;5.82;;;20.90;64.80;;;;;;5083042;28;21740;-62
2022/08/26 01:53:43;;;;;;;14.93;6.35;;;20.90;65.00;;;;;;5073486;28;20115;-62
2022/08/26 01:56:11;;;;;;;15.43;6.90;;;20.90;65.00;;;;;;5064099;28;20091;-63
2022/08/26 01:58:45;;;;;;;14.60;6.30;;;20.90;65.00;;;;;;5069221;28;20061;-63
2022/08/26 02:01:12;;;;;;;10.35;6.47;;;20.90;65.50;;;;;;5046183;28;20113;-64
2022/08/26 02:04:00;;;;;;;11.73;6.25;;;20.90;65.00;;;;;;5080590;28;20038;-63
2022/08/26 02:06:26;;;;;;;9.05;5.93;;;20.90;65.70;;;;;;5065953;28;20032;-63
2022/08/26 02:08:55;;;;;;;13.50;6.45;;;20.80;64.90;;;;;;5083171;28;20036;-62
2022/08/26 02:11:20;;;;;;;11.82;6.60;;;20.80;65.10;;;;;;5065417;28;20651;-62
2022/08/26 02:13:53;;;;;;;15.38;6.45;;;20.80;64.90;;;;;;5072828;28;20032;-62
2022/08/26 02:16:23;;;;;;;13.02;6.82;;;20.80;65.30;;;;;;5065615;28;20045;-63
2022/08/26 02:18:49;;;;;;;10.88;6.03;;;20.70;65.00;;;;;;5083586;28;20052;-62
2022/08/26 02:21:15;;;;;;;17.80;7.15;;;20.80;65.10;;;;;;5065391;28;20025;-62
2022/08/26 02:23:42;;;;;;;9.93;6.28;;;20.70;65.10;;;;;;5064845;28;20061;-61
2022/08/26 02:26:17;;;;;;;14.02;6.03;;;20.70;65.20;;;;;;5064927;28;20042;-64
2022/08/26 02:28:51;;;;;;;15.02;6.60;;;20.70;65.80;;;;;;5073209;28;20033;-61
2022/08/26 02:31:18;;;;;;;14.82;6.05;;;20.70;65.40;;;;;;5063905;28;20020;-61
2022/08/26 02:33:44;;;;;;;13.98;6.25;;;20.60;64.70;;;;;;5074920;28;20029;-61
2022/08/26 02:36:10;;;;;;;15.70;6.45;;;20.70;64.80;;;;;;5072276;28;20044;-63
2022/08/26 02:38:35;;;;;;;18.88;7.35;;;20.60;65.10;;;;;;5076014;28;20036;-63
2022/08/26 02:41:01;;;;;;;13.18;6.13;;;20.60;65.20;;;;;;5079820;28;20147;-62
2022/08/26 02:43:27;;;;;;;14.65;6.40;;;20.60;65.10;;;;;;5080265;28;20035;-62
2022/08/26 02:45:52;;;;;;;11.10;6.45;;;20.50;65.10;;;;;;5066679;28;20029;-62
2022/08/26 02:48:20;;;;;;;13.40;6.10;;;20.50;65.20;;;;;;5080395;28;20029;-61
2022/08/26 02:50:47;;;;;;;7.93;5.25;;;20.50;65.40;;;;;;5084941;28;20028;-60
2022/08/26 02:53:13;;;;;;;12.48;5.97;;;20.50;65.50;;;;;;5067672;28;20048;-60
2022/08/26 02:55:39;;;;;;;17.85;6.60;;;20.50;65.70;;;;;;5086319;28;20032;-61
2022/08/26 02:58:05;;;;;;;16.58;6.57;;;20.40;65.70;;;;;;5081112;28;20353;-61
2022/08/26 03:00:31;;;;;;;13.38;6.72;;;20.50;65.80;;;;;;5085552;28;20055;-60
2022/08/26 03:02:58;;;;;;;12.75;6.70;;;20.40;65.80;;;;;;5066137;28;20108;-61
2022/08/26 03:05:24;;;;;;;14.98;5.93;;;20.40;66.00;;;;;;5086559;28;20032;-61
2022/08/26 03:07:50;;;;;;;10.02;5.60;;;20.40;66.00;;;;;;5084420;28;20038;-61
2022/08/26 03:10:16;;;;;;;22.60;6.45;;;20.40;66.00;;;;;;5047237;28;20051;-61
2022/08/26 03:12:44;;;;;;;11.25;6.45;;;20.40;66.00;;;;;;5065505;28;20021;-62
2022/08/26 03:15:11;;;;;;;13.27;5.93;;;20.30;65.90;;;;;;5077651;28;20040;-62
2022/08/26 03:17:37;;;;;;;14.75;6.40;;;20.30;65.80;;;;;;5079445;28;20033;-62
2022/08/26 03:20:07;;;;;;;12.75;6.15;;;20.30;65.90;;;;;;5075660;28;20036;-62
2022/08/26 03:22:34;;;;;;;8.32;5.90;;;20.30;65.90;;;;;;5062563;28;20058;-61
2022/08/26 03:25:02;;;;;;;11.57;6.35;;;20.30;65.90;;;;;;5063992;28;20032;-61
2022/08/26 03:27:27;;;;;;;12.25;6.00;;;20.20;66.60;;;;;;5073174;28;20032;-62
2022/08/26 03:32:38;;;;;;;12.70;6.15;;;20.20;66.00;;;;;;5066592;28;20067;-61
2022/08/26 03:35:04;;;;;;;15.48;6.47;;;20.20;65.90;;;;;;5075884;28;20028;-61
2022/08/26 03:37:29;;;;;;;14.20;6.47;;;20.20;66.20;;;;;;5083793;28;20024;-62
2022/08/26 03:39:55;;;;;;;11.13;6.35;;;20.10;66.20;;;;;;5068461;28;20061;-61
2022/08/26 03:42:21;;;;;;;9.52;5.57;;;20.10;66.30;;;;;;5085121;28;20052;-61
2022/08/26 03:44:47;;;;;;;11.32;6.10;;;20.10;66.30;;;;;;5070947;28;20029;-61
2022/08/26 03:47:12;;;;;;;13.85;6.05;;;20.10;66.20;;;;;;5085302;28;20025;-61
2022/08/26 03:49:38;;;;;;;13.32;6.40;;;20.10;66.40;;;;;;5073837;28;20059;-61
2022/08/26 03:52:05;;;;;;;12.10;6.00;;;20.10;66.50;;;;;;5067146;28;20032;-62
2022/08/26 03:54:31;;;;;;;11.55;5.72;;;20.00;66.50;;;;;;5070518;28;20028;-61
2022/08/26 03:56:57;;;;;;;13.77;6.13;;;20.00;66.60;;;;;;5078551;28;20039;-61
2022/08/26 03:59:22;;;;;;;8.93;6.03;;;20.00;66.60;;;;;;5072032;28;20033;-62
2022/08/26 04:01:48;;;;;;;12.85;6.10;;;20.10;66.80;;;;;;5082897;28;20036;-61
2022/08/26 04:04:13;;;;;;;14.63;6.07;;;20.00;66.90;;;;;;5073310;28;20061;-61
2022/08/26 04:06:43;;;;;;;16.73;6.57;;;20.00;67.00;;;;;;5071780;28;20040;-62
2022/08/26 04:09:13;;;;;;;11.40;5.68;;;20.00;67.20;;;;;;5080750;28;20040;-62
2022/08/26 04:11:42;;;;;;;11.18;6.57;;;20.00;67.30;;;;;;5078804;28;20033;-60
2022/08/26 04:14:13;;;;;;;10.23;6.07;;;19.90;67.40;;;;;;5076835;28;20051;-62
2022/08/26 04:16:40;;;;;;;15.98;6.03;;;19.90;67.40;;;;;;5081387;28;20438;-61
2022/08/26 04:19:06;;;;;;;14.85;6.35;;;19.90;67.20;;;;;;5074413;28;20071;-61
2022/08/26 04:21:33;;;;;;;14.32;7.13;;;19.90;67.40;;;;;;5082603;28;20053;-62
2022/08/26 04:23:59;;;;;;;18.08;6.75;;;19.90;67.60;;;;;;5066621;28;20065;-62
2022/08/26 04:26:25;;;;;;;11.55;6.45;;;19.90;67.60;;;;;;5080288;28;20048;-61
2022/08/26 04:28:52;;;;;;;11.63;6.60;;;19.90;67.50;;;;;;5075689;28;20033;-61
2022/08/26 04:31:18;;;;;;;13.73;6.65;;;19.90;67.50;;;;;;5063603;28;20025;-61
2022/08/26 04:33:46;;;;;;;11.00;6.28;;;19.90;67.30;;;;;;5082936;28;20119;-61
2022/08/26 04:36:12;;;;;;;13.60;6.68;;;19.90;67.40;;;;;;5078045;28;20056;-61
2022/08/26 04:38:38;;;;;;;15.82;6.22;;;19.80;67.40;;;;;;5080922;28;20032;-63
2022/08/26 04:41:07;;;;;;;12.30;6.45;;;19.90;67.60;;;;;;5081643;28;20418;-61
2022/08/26 04:43:32;;;;;;;13.77;6.53;;;19.80;68.00;;;;;;5083725;28;20061;-61
2022/08/26 04:46:04;;;;;;;12.82;6.57;;;19.80;67.80;;;;;;5078825;28;20024;-61
2022/08/26 04:48:31;;;;;;;15.38;7.05;;;19.80;68.10;;;;;;5083010;28;20048;-60
2022/08/26 04:50:58;;;;;;;11.15;6.53;;;19.80;67.70;;;;;;5081428;28;20033;-63
2022/08/26 04:53:25;;;;;;;11.73;7.25;;;19.90;67.70;;;;;;5074913;28;20029;-61
2022/08/26 04:55:51;;;;;;;9.05;6.57;;;19.80;67.70;;;;;;5084682;28;20025;-60
2022/08/26 04:58:19;;;;;;;9.63;6.40;;;19.80;67.70;;;;;;5071275;28;20074;-61
2022/08/26 05:00:47;;;;;;;13.32;6.88;;;19.80;67.80;;;;;;5082998;28;20036;-62
2022/08/26 05:03:13;;;;;;;11.50;6.30;;;19.80;68.00;;;;;;5081235;28;20033;-61
2022/08/26 05:05:41;;;;;;;9.52;6.20;;;19.80;68.00;;;;;;5084440;28;20039;-59
2022/08/26 05:08:08;;;;;;;13.00;6.85;;;19.80;68.10;;;;;;5071018;28;20078;-61
2022/08/26 05:10:41;;;;;;;13.60;7.25;;;19.80;68.10;;;;;;5070587;28;20097;-62
2022/08/26 05:13:07;;;;;;;11.20;6.07;;;19.80;68.30;;;;;;5052322;28;20364;-61
2022/08/26 05:15:34;;;;;;;10.85;6.53;;;19.90;68.20;;;;;;5079741;28;20017;-61
2022/08/26 05:18:02;;;;;;;11.40;6.05;;;19.90;68.20;;;;;;5081147;28;20060;-61
2022/08/26 05:20:28;;;;;;;12.18;6.40;;;19.90;68.40;;;;;;5069066;28;20036;-61
2022/08/26 05:22:54;;;;;;;12.38;6.70;;;20.00;68.60;;;;;;5081660;28;20035;-61
2022/08/26 05:25:19;;;;;;;10.85;6.45;;;20.00;68.60;;;;;;5076042;28;20040;-63
2022/08/26 05:27:45;;;;;;;12.27;6.50;;;20.10;68.60;;;;;;5081037;28;20078;-63
2022/08/26 05:30:11;;;;;;;11.30;6.32;;;20.10;68.40;;;;;;5066242;28;20052;-62
2022/08/26 05:32:38;;;;;;;13.68;6.95;;;20.20;68.30;;;;;;5076522;28;20032;-62
2022/08/26 05:35:03;;;;;;;12.13;6.50;;;20.30;68.40;;;;;;5076706;28;20499;-61
2022/08/26 05:37:29;;;;;;;11.68;6.43;;;20.30;68.40;;;;;;5085235;28;20028;-62
2022/08/26 05:39:55;;;;;;;8.00;5.70;;;20.40;68.30;;;;;;5072805;28;20033;-62
2022/08/26 05:42:20;;;;;;;10.90;7.05;;;20.50;68.10;;;;;;5085016;28;20083;-61
2022/08/26 05:44:51;;;;;;;14.23;6.70;;;20.60;68.00;;;;;;5070309;28;20029;-62
2022/08/26 05:47:17;;;;;;;19.73;6.63;;;20.60;68.00;;;;;;5063685;28;20154;-61
2022/08/26 05:49:42;;;;;;;20.08;7.30;;;20.70;67.80;;;;;;5063787;28;20076;-61
2022/08/26 05:52:08;;;;;;;19.40;7.07;;;20.80;67.90;;;;;;5077680;28;20036;-62
2022/08/26 05:54:34;;;;;;;18.52;7.05;;;20.90;67.80;;;;;;5074689;28;20036;-62
2022/08/26 05:56:59;;;;;;;12.20;6.50;;;21.00;67.80;;;;;;5085276;28;20028;-62
2022/08/26 05:59:25;;;;;;;11.98;6.43;;;21.10;67.60;;;;;;5085986;28;20037;-61
2022/08/26 06:01:53;;;;;;;11.38;6.60;;;21.20;67.50;;;;;;5074780;28;20036;-62
2022/08/26 06:04:19;;;;;;;14.57;6.30;;;21.30;67.60;;;;;;5082501;28;20025;-61
2022/08/26 06:06:44;;;;;;;12.15;6.88;;;21.40;67.50;;;;;;5077828;28;20038;-61
2022/08/26 06:09:10;;;;;;;17.40;6.82;;;21.50;67.40;;;;;;5067581;28;20092;-63
2022/08/26 06:11:36;;;;;;;15.23;6.85;;;21.60;67.20;;;;;;5082854;28;20403;-63
2022/08/26 06:14:05;;;;;;;15.45;6.95;;;21.70;67.00;;;;;;5082311;28;20112;-61
2022/08/26 06:16:34;;;;;;;15.88;6.57;;;21.80;66.80;;;;;;5065656;28;20040;-60
2022/08/26 06:19:01;;;;;;;11.95;6.60;;;21.90;66.60;;;;;;5067576;28;20087;-61
2022/08/26 06:21:34;;;;;;;16.63;7.13;;;22.00;66.50;;;;;;5075831;28;20075;-61
2022/08/26 06:26:51;;;;;;;12.20;7.22;;;22.30;66.10;;;;;;5075385;28;20525;-60
2022/08/26 06:29:18;;;;;;;15.70;7.05;;;22.40;65.80;;;;;;5070791;28;20021;-62
2022/08/26 06:31:44;;;;;;;13.77;6.50;;;22.50;65.40;;;;;;5069386;28;20392;-62
2022/08/26 06:34:10;;;;;;;19.85;7.43;;;22.50;65.20;;;;;;5073793;28;20024;-62
2022/08/26 06:36:38;;;;;;;12.18;6.55;;;22.50;65.20;;;;;;5075316;28;20029;-61
2022/08/26 06:39:06;;;;;;;15.73;6.82;;;22.60;65.00;;;;;;5071011;28;20029;-60
2022/08/26 06:41:33;;;;;;;13.13;6.53;;;22.60;64.90;;;;;;5060160;28;20021;-60
2022/08/26 06:43:59;;;;;;;16.85;7.70;;;22.60;64.70;;;;;;5076329;28;20020;-60
2022/08/26 06:46:25;;;;;;;14.57;7.57;;;22.60;64.80;;;;;;5066239;28;20054;-60
2022/08/26 06:48:52;;;;;;;11.32;6.97;;;22.70;65.10;;;;;;5061519;28;20029;-61
2022/08/26 06:51:24;;;;;;;9.73;6.82;;;22.80;65.30;;;;;;5066223;28;20031;-61
2022/08/26 06:53:52;;;;;;;12.50;6.70;;;22.90;65.60;;;;;;5068852;28;20025;-62
2022/08/26 06:56:21;;;;;;;16.02;7.10;;;23.00;65.60;;;;;;5071029;28;20088;-62
2022/08/26 06:58:47;;;;;;;13.35;6.55;;;23.10;65.80;;;;;;5067048;28;20060;-62
2022/08/26 07:01:22;;;;;;;19.70;8.05;;;23.30;65.70;;;;;;5075420;28;20047;-61
2022/08/26 07:03:51;;;;;;;20.42;8.27;;;23.40;65.60;;;;;;5058604;28;20033;-62
2022/08/26 07:06:18;;;;;;;14.55;8.50;;;23.60;65.40;;;;;;5070867;28;20097;-62
2022/08/26 07:08:45;;;;;;;22.02;10.70;;;23.70;65.10;;;;;;5066409;28;20017;-63
2022/08/26 07:11:11;;;;;;;21.80;10.02;;;24.00;64.80;;;;;;5085364;28;20036;-61
2022/08/26 07:13:37;;;;;;;19.77;11.70;;;24.10;64.50;;;;;;5065594;28;20029;-61
2022/08/26 07:16:04;;;;;;;25.52;11.40;;;24.30;64.30;;;;;;5085161;28;20035;-62
2022/08/26 07:18:32;;;;;;;19.35;10.57;;;24.50;63.90;;;;;;5073165;28;20056;-62
2022/08/26 07:21:01;;;;;;;21.63;11.48;;;24.60;63.30;;;;;;5065413;28;20138;-62
2022/08/26 07:23:26;;;;;;;24.23;10.95;;;24.70;62.90;;;;;;5075076;28;20030;-63
2022/08/26 07:25:52;;;;;;;24.90;10.20;;;24.80;62.80;;;;;;5065019;28;20068;-62
2022/08/26 07:28:18;;;;;;;19.45;9.18;;;24.90;62.60;;;;;;5085401;28;20483;-61
2022/08/26 07:30:44;;;;;;;24.70;10.60;;;25.00;62.60;;;;;;5047798;28;20087;-62
2022/08/26 07:33:10;;;;;;;16.92;9.80;;;25.10;62.10;;;;;;5084842;28;20036;-62
2022/08/26 07:35:35;;;;;;;19.20;9.55;;;25.20;62.00;;;;;;5065685;28;20193;-61
2022/08/26 07:38:01;;;;;;;22.70;9.50;;;25.30;62.00;;;;;;5082905;28;20055;-62
2022/08/26 07:40:27;;;;;;;15.98;9.05;;;25.40;61.70;;;;;;5069915;28;20117;-63
2022/08/26 07:42:53;;;;;;;16.23;9.07;;;25.40;61.40;;;;;;5062654;28;20028;-62
2022/08/26 07:45:19;;;;;;;19.42;9.60;;;25.50;61.30;;;;;;5071041;28;20037;-61
2022/08/26 07:47:44;;;;;;;18.17;9.00;;;25.60;61.30;;;;;;5075580;28;20075;-62
2022/08/26 07:50:10;;;;;;;14.65;9.57;;;25.60;61.40;;;;;;5068300;28;20029;-62
2022/08/26 07:52:37;;;;;;;25.23;10.18;;;25.60;61.10;;;;;;5072005;28;20044;-62
2022/08/26 07:55:04;;;;;;;25.27;9.57;;;25.70;61.10;;;;;;5072616;28;20033;-62
2022/08/26 07:57:30;;;;;;;21.45;9.02;;;25.70;61.20;;;;;;5073890;28;20103;-61
2022/08/26 07:59:56;;;;;;;17.27;9.43;;;25.70;61.20;;;;;;5077996;28;20067;-61
2022/08/26 08:02:23;;;;;;;20.85;8.65;;;25.70;61.00;;;;;;5080789;28;20434;-61
2022/08/26 08:04:50;;;;;;;12.60;8.13;;;25.80;61.20;;;;;;5082776;28;20025;-62
2022/08/26 08:07:16;;;;;;;18.85;8.45;;;25.90;61.00;;;;;;5084949;28;20017;-61
2022/08/26 08:09:41;;;;;;;21.42;9.32;;;26.00;60.90;;;;;;5063788;28;20029;-61
2022/08/26 08:12:08;;;;;;;15.55;9.55;;;26.00;61.20;;;;;;5096769;28;20476;-62
2022/08/26 08:14:35;;;;;;;17.77;8.57;;;26.20;60.90;;;;;;5074441;28;20364;-61
2022/08/26 08:17:02;;;;;;;13.85;8.43;;;26.20;60.70;;;;;;5068596;28;20028;-62
2022/08/26 08:19:27;;;;;;;20.00;9.05;;;26.40;60.70;;;;;;5070739;28;20044;-63
2022/08/26 08:21:53;;;;;;;27.80;9.63;;;26.60;60.90;;;;;;5068421;28;20048;-61
2022/08/26 08:24:19;;;;;;;18.98;9.60;;;26.70;60.20;;;;;;5081010;28;20043;-61
2022/08/26 08:26:44;;;;;;;16.70;9.65;;;26.90;60.10;;;;;;5085323;28;20123;-62
2022/08/26 08:29:10;;;;;;;19.67;10.35;;;27.00;59.60;;;;;;5074292;28;20040;-60
2022/08/26 08:31:36;;;;;;;15.85;9.20;;;27.20;59.10;;;;;;5085339;28;20028;-62
2022/08/26 08:34:02;;;;;;;24.88;9.48;;;27.30;59.00;;;;;;5077618;28;20115;-62
2022/08/26 08:36:28;;;;;;;20.45;9.10;;;27.40;58.90;;;;;;5083742;28;20028;-62
2022/08/26 08:38:54;;;;;;;17.55;10.32;;;27.60;58.90;;;;;;5080806;28;20043;-61
2022/08/26 08:41:35;;;;;;;17.38;9.15;;;27.80;58.50;;;;;;5084031;28;20028;-62
2022/08/26 08:44:01;;;;;;;16.52;9.73;;;27.90;57.80;;;;;;5074213;28;20028;-61
2022/08/26 08:46:28;;;;;;;19.85;9.38;;;28.10;57.70;;;;;;5085364;28;20033;-62
2022/08/26 08:48:58;;;;;;;19.45;9.05;;;28.20;57.40;;;;;;5068528;28;20025;-63
2022/08/26 08:51:47;;;;;;;13.25;6.65;;;28.30;56.80;;;;;;5068561;28;20044;-62
2022/08/26 08:54:13;;;;;;;9.45;6.65;;;28.40;55.20;;;;;;5074321;28;20084;-62
2022/08/26 08:56:58;;;;;;;17.98;6.95;;;28.50;56.70;;;;;;5072732;28;20494;-62
2022/08/26 08:59:32;;;;;;;12.80;6.05;;;28.60;56.20;;;;;;5070912;28;20044;-62
2022/08/26 09:02:33;;;;;;;12.30;6.43;;;28.70;55.90;;;;;;5086372;28;20127;-62
2022/08/26 09:05:13;;;;;;;13.60;6.63;;;28.90;55.60;;;;;;5081863;28;20424;-62
2022/08/26 09:07:44;;;;;;;11.60;5.85;;;29.10;55.50;;;;;;5055609;28;20052;-61
2022/08/26 09:10:31;;;;;;;14.45;6.45;;;29.20;55.70;;;;;;5085433;28;20082;-62
2022/08/26 09:12:59;;;;;;;17.35;4.30;;;29.30;54.50;;;;;;5053430;28;20104;-62
2022/08/26 09:15:35;;;;;;;10.93;4.75;;;29.50;54.50;;;;;;5068810;28;20163;-63
2022/08/26 09:18:09;;;;;;;9.43;4.60;;;29.60;53.40;;;;;;5057185;28;20025;-61
2022/08/26 09:20:50;;;;;;;9.98;4.43;;;29.70;53.60;;;;;;5067459;28;20086;-63
2022/08/26 09:23:16;;;;;;;12.32;4.15;;;29.80;53.30;;;;;;5082374;28;20523;-63
2022/08/26 09:25:58;;;;;;;8.90;4.95;;;30.00;53.00;;;;;;5071948;28;20032;-62
2022/08/26 09:28:27;;;;;;;18.13;4.88;;;30.00;52.00;;;;;;5069058;28;20037;-62
2022/08/26 09:31:19;;;;;;;13.48;4.75;;;30.10;52.50;;;;;;5071619;28;20045;-63
2022/08/26 09:33:45;;;;;;;11.77;5.20;;;30.20;51.30;;;;;;5087578;28;20418;-62
2022/08/26 09:36:35;;;;;;;9.05;4.38;;;30.30;51.50;;;;;;5069144;28;20089;-63
2022/08/26 09:39:01;;;;;;;11.23;5.07;;;30.30;50.90;;;;;;5083141;28;20041;-63
2022/08/26 09:41:34;;;;;;;14.40;4.47;;;30.40;51.60;;;;;;5083504;28;20088;-64
2022/08/26 09:44:19;;;;;;;10.52;4.65;;;30.40;50.80;;;;;;5084214;28;20021;-61
2022/08/26 09:46:55;;;;;;;12.13;3.63;;;30.60;50.60;;;;;;5066457;28;20051;-62
2022/08/26 09:49:56;;;;;;;12.10;3.92;;;30.60;49.90;;;;;;5071757;28;20058;-62
2022/08/26 09:52:25;;;;;;;19.48;4.05;;;30.70;49.10;;;;;;5066711;28;20044;-62
2022/08/26 09:55:21;;;;;;;10.07;3.47;;;30.80;49.20;;;;;;5081941;28;20021;-62
2022/08/26 09:57:52;;;;;;;12.68;4.18;;;30.80;48.60;;;;;;5067621;28;20041;-62
2022/08/26 10:00:35;;;;;;;13.63;3.63;;;30.90;48.60;;;;;;5061895;28;20415;-61
2022/08/26 10:03:04;;;;;;;14.20;4.25;;;30.90;47.70;;;;;;5055975;28;20032;-62
2022/08/26 10:05:39;;;;;;;8.23;3.47;;;30.90;47.90;;;;;;5070303;28;20107;-64
2022/08/26 10:08:26;;;;;;;13.30;4.05;;;31.00;47.70;;;;;;5069481;28;20121;-62
2022/08/26 10:10:55;;;;;;;20.35;4.05;;;31.00;47.50;;;;;;5071187;28;20040;-62
2022/08/26 10:13:41;;;;;;;12.02;3.95;;;31.10;47.90;;;;;;5070001;28;20101;-61
2022/08/26 10:16:17;;;;;;;9.48;3.70;;;31.10;47.40;;;;;;5062809;28;20519;-62
2022/08/26 10:18:53;;;;;;;11.70;4.07;;;31.20;47.50;;;;;;5069558;28;20041;-62
2022/08/26 10:21:56;;;;;;;12.80;3.90;;;31.30;46.80;;;;;;5076010;28;20029;-63
2022/08/26 10:24:36;;;;;;;20.00;4.03;;;31.40;47.60;;;;;;5067631;28;20036;-62
2022/08/26 10:27:28;;;;;;;10.15;3.70;;;31.50;47.90;;;;;;5069803;28;20033;-63
2022/08/26 10:30:03;;;;;;;13.75;4.13;;;31.60;46.50;;;;;;5065659;28;20032;-62
2022/08/26 10:32:47;;;;;;;19.98;4.93;;;31.70;46.30;;;;;;5060594;28;20100;-61
2022/08/26 10:35:18;;;;;;;11.93;4.00;;;31.80;46.40;;;;;;5054209;28;20029;-62
2022/08/26 10:38:07;;;;;;;13.90;4.72;;;31.90;47.40;;;;;;5069852;28;20033;-63
2022/08/26 10:40:43;;;;;;;14.02;3.90;;;32.00;46.70;;;;;;5076326;28;20048;-62
2022/08/26 10:43:24;;;;;;;7.05;3.45;;;32.10;46.00;;;;;;5076260;28;20059;-61
2022/08/26 10:45:53;;;;;;;14.63;4.35;;;32.20;46.10;;;;;;5058012;28;20037;-61
2022/08/26 10:48:37;;;;;;;17.23;4.35;;;32.30;46.70;;;;;;5067253;28;20055;-62
2022/08/26 10:51:05;;;;;;;12.32;3.85;;;32.30;46.40;;;;;;5064192;28;20044;-61
2022/08/26 10:53:55;;;;;;;14.57;4.35;;;32.40;46.20;;;;;;5084869;28;20029;-63
2022/08/26 10:56:28;;;;;;;15.95;3.97;;;32.50;44.90;;;;;;5071311;28;20032;-62
2022/08/26 10:59:17;;;;;;;9.98;3.97;;;32.60;45.50;;;;;;5046631;28;20032;-62
2022/08/26 11:01:51;;;;;;;11.48;4.05;;;32.80;45.00;;;;;;5064329;28;20080;-62
2022/08/26 11:04:34;;;;;;;15.68;4.30;;;32.80;43.80;;;;;;5072780;28;20036;-63
2022/08/26 11:07:38;;;;;;;9.23;3.67;;;32.90;43.80;;;;;;5057261;28;20088;-62
2022/08/26 11:10:15;;;;;;;8.68;3.55;;;33.00;44.70;;;;;;5080982;28;20043;-63
2022/08/26 11:12:41;;;;;;;11.93;3.72;;;33.10;43.90;;;;;;5079196;28;20029;-62
2022/08/26 11:15:18;;;;;;;9.88;4.10;;;33.20;43.10;;;;;;5065765;28;20036;-63
2022/08/26 11:17:44;;;;;;;10.48;3.25;;;33.20;42.80;;;;;;5063068;28;20036;-62
2022/08/26 11:20:22;;;;;;;11.68;3.90;;;33.30;42.70;;;;;;5072324;28;20061;-62
2022/08/26 11:22:49;;;;;;;13.65;4.18;;;33.30;42.80;;;;;;5057569;28;20017;-65
2022/08/26 11:25:16;;;;;;;14.60;3.10;;;33.40;43.10;;;;;;5077128;28;20569;-63
2022/08/26 11:27:51;;;;;;;12.88;4.07;;;33.50;42.20;;;;;;5081999;28;20064;-64
2022/08/26 11:30:18;;;;;;;10.93;3.38;;;33.60;42.50;;;;;;5077612;28;20099;-63
2022/08/26 11:32:50;;;;;;;18.52;3.85;;;33.70;42.90;;;;;;5082983;28;20032;-64
2022/08/26 11:35:18;;;;;;;6.88;3.28;;;33.90;42.20;;;;;;5053709;28;20061;-64
2022/08/26 11:37:47;;;;;;;13.45;3.88;;;34.00;41.60;;;;;;5079125;28;20041;-63
2022/08/26 11:40:44;;;;;;;10.73;3.65;;;34.10;40.80;;;;;;5083353;28;20042;-62
2022/08/26 11:43:17;;;;;;;14.50;3.65;;;34.20;38.70;;;;;;5070827;28;20131;-64
2022/08/26 11:45:46;;;;;;;13.70;4.00;;;34.20;39.50;;;;;;5053151;28;20081;-62
2022/08/26 11:48:25;;;;;;;17.45;3.95;;;34.20;39.10;;;;;;5081658;28;20058;-63
2022/08/26 11:51:02;;;;;;;12.13;3.92;;;34.10;36.60;;;;;;5057607;28;20033;-63
2022/08/26 11:53:31;;;;;;;10.32;3.15;;;34.00;37.80;;;;;;5064648;28;20033;-62
2022/08/26 11:55:59;;;;;;;13.00;3.80;;;33.90;38.00;;;;;;5068567;28;20076;-63
2022/08/26 11:58:26;;;;;;;14.23;3.83;;;33.90;37.80;;;;;;5069515;28;20054;-63
2022/08/26 12:00:59;;;;;;;11.45;3.20;;;33.90;38.60;;;;;;5074995;28;20035;-63
2022/08/26 12:03:45;;;;;;;18.25;4.07;;;33.90;39.80;;;;;;5086486;28;20031;-62
2022/08/26 12:06:24;;;;;;;9.02;2.92;;;34.00;39.60;;;;;;5060831;28;20028;-61
2022/08/26 12:08:52;;;;;;;9.70;3.20;;;34.20;37.90;;;;;;5068276;28;20054;-61
2022/08/26 12:11:30;;;;;;;5.72;2.95;;;34.30;37.40;;;;;;5067099;28;20033;-62
2022/08/26 12:14:03;;;;;;;12.63;3.35;;;34.40;38.00;;;;;;5064988;28;20404;-61
2022/08/26 12:16:38;;;;;;;5.70;2.90;;;34.50;38.70;;;;;;5061222;28;20025;-62
2022/08/26 12:19:25;;;;;;;12.55;3.35;;;34.50;38.40;;;;;;5057515;28;20422;-61
2022/08/26 12:21:56;;;;;;;13.25;3.28;;;34.70;37.70;;;;;;5064197;28;20048;-61
2022/08/26 12:24:21;;;;;;;12.07;3.20;;;34.90;38.50;;;;;;5056172;28;20136;-61
2022/08/26 12:26:47;;;;;;;11.43;3.25;;;35.00;37.90;;;;;;5082348;28;20032;-62
2022/08/26 12:29:24;;;;;;;9.38;2.83;;;35.10;36.20;;;;;;5067452;28;20029;-62
2022/08/26 12:31:50;;;;;;;8.88;3.03;;;35.10;34.80;;;;;;5063954;28;20536;-62
2022/08/26 12:34:17;;;;;;;14.48;4.20;;;35.00;35.30;;;;;;5081649;28;20088;-62
2022/08/26 12:36:47;;;;;;;14.52;4.70;;;34.80;35.60;;;;;;5067432;28;20040;-61
2022/08/26 12:39:23;;;;;;;11.95;4.20;;;34.50;36.00;;;;;;5074143;28;20020;-61
2022/08/26 12:41:51;;;;;;;8.88;3.70;;;34.20;36.70;;;;;;5062967;28;20032;-61
2022/08/26 12:44:40;;;;;;;16.27;3.80;;;33.80;37.20;;;;;;5064646;28;20100;-62
2022/08/26 12:47:32;;;;;;;18.48;3.90;;;33.40;38.00;;;;;;5078456;28;20062;-62
2022/08/26 12:50:04;;;;;;;12.13;4.35;;;33.10;38.10;;;;;;5064247;28;20383;-62
2022/08/26 12:52:37;;;;;;;14.20;4.53;;;32.90;39.30;;;;;;5074764;28;20033;-63
2022/08/26 12:55:18;;;;;;;10.18;3.83;;;32.40;40.00;;;;;;5060816;28;20124;-62
2022/08/26 12:57:43;;;;;;;12.55;3.85;;;32.10;40.80;;;;;;5058918;28;20051;-63
2022/08/26 13:00:36;;;;;;;16.67;4.88;;;31.60;41.70;;;;;;5072347;28;20036;-65